(°C)
15°
15°
14°
13°
11°
11°
10°
(°C)
11°
11°
11°
10°
Ю
ЮЮЗ
Ю
Ю
Ю
Ю
Ю
(km/h)
15-24
15-24
13-22
10-19
9-17
8-16
8-15
(mm)
0
0
0
0
0
0
0
(%)
0
0
0
0
0
0
0

Издигане на слънцето

/ 22.1°
sun-icon
UV 2
07:14
17:57
Нарастваща полу-луна (167°)
17:49
05:38

METAR за Ivanka pri Dunaji (LZIB)

Час Условия Температура/
Точка на оросяване
Вятър Видимост Времето Облаци Налягане Промяна Сурови
VFR 15°C / 7°C 180º variable 130º to 210º 7kt >10km - Clouds and Visibility OK 1026 No Significant change LZIB 191300Z 18007KT 130V210 CAVOK 15/07 Q1026 NOSIG
VFR 15°C / 8°C variable 2kt >10km - Clouds and Visibility OK 1026 No Significant change LZIB 191230Z VRB02KT CAVOK 15/08 Q1026 NOSIG
VFR 13°C / 7°C variable 2kt >10km - Clouds and Visibility OK 1027 No Significant change LZIB 191200Z VRB02KT CAVOK 13/07 Q1027 NOSIG
VFR 12°C / 7°C 60º variable 340º to 100º 4kt >10km - Clouds and Visibility OK 1027 No Significant change LZIB 191130Z 06004KT 340V100 CAVOK 12/07 Q1027 NOSIG
VFR 11°C / 7°C 40º variable 010º to 070º 7kt >10km - Clouds and Visibility OK 1028 No Significant change LZIB 191100Z 04007KT 010V070 CAVOK 11/07 Q1028 NOSIG
VFR 10°C / 6°C 20º 6kt >10km - Clouds and Visibility OK 1028 No Significant change LZIB 191030Z 02006KT CAVOK 10/06 Q1028 NOSIG
VFR 9°C / 6°C 50º 5kt >10km - Clouds and Visibility OK 1028 No Significant change LZIB 191000Z 05005KT CAVOK 09/06 Q1028 NOSIG
VFR 9°C / 6°C 30º 5kt >10km - Clouds and Visibility OK 1028 No Significant change LZIB 190930Z 03005KT CAVOK 09/06 Q1028 NOSIG
VFR 8°C / 6°C 40º 8kt >10km - Few Clouds 700ft 1028 No Significant change LZIB 190900Z 04008KT 9999 FEW007 08/06 Q1028 NOSIG
MVFR 7°C / 6°C 30º 7kt 7000m - Scattered Clouds 400ft 1028 No Significant change LZIB 190830Z 03007KT 7000 SCT004 07/06 Q1028 NOSIG
MVFR 6°C / 5°C 30º 6kt 5000m Mist Vertical Visibility of 0ft. 1028 No Significant change LZIB 190800Z 03006KT 5000 BR SCT003 06/05 Q1028 NOSIG
LIFR 6°C / 5°C 40º 6kt 5000m shallow Fog Mist Vertical Visibility of 0ft. 1028 Becoming: Few Clouds 500ft. LZIB 190730Z 04006KT 5000 MIFG BR BKN003 06/05 Q1028 BECMG FEW005
IFR 5°C / 5°C 40º 8kt 4200m shallow Fog Mist Vertical Visibility of 0ft. 1028 Temporary: Visibility 0300. Fog . LZIB 190700Z 04008KT 4200 MIFG BR SCT002 05/05 Q1028 TEMPO 0300 FG
MVFR 5°C / 4°C 30º 6kt 5000m shallow Fog Mist Vertical Visibility of 0ft. 1028 Temporary: Visibility 1200. patches Fog . Scattered Clouds 200ft. LZIB 190630Z 03006KT 5000 MIFG BR FEW009 05/04 Q1028 TEMPO 1200 BCFG SCT002
MVFR 4°C / 3°C 50º 5kt 6000m shallow Fog Vertical Visibility of 0ft. 1028 Temporary: Visibility 2500. Mist . Few Clouds 900ft. LZIB 190600Z 05005KT 6000 MIFG FEW009 04/03 Q1028 TEMPO 2500 BR FEW009
MVFR 3°C / 2°C 30º 6kt 7000m shallow Fog Vertical Visibility of 0ft. 1028 Temporary: Visibility 2200. patches Fog . Scattered Clouds 200ft. LZIB 190530Z 03006KT 7000 MIFG FEW009 03/02 Q1028 TEMPO 2200 BCFG SCT002
VFR 3°C / 2°C 30º 6kt >10km shallow Fog Vertical Visibility of 0ft. 1028 Temporary: Visibility 2200. patches Fog . Scattered Clouds 200ft. LZIB 190500Z 03006KT 9999 MIFG FEW010 03/02 Q1028 TEMPO 2200 BCFG SCT002
VFR 3°C / 2°C 40º 4kt >10km shallow Fog Vertical Visibility of 0ft. 1027 Temporary: Visibility 1200. patches Fog . Broken Clouds 200ft. LZIB 190430Z 04004KT 9999 MIFG NSC 03/02 Q1027 TEMPO 1200 BCFG BKN002
VFR 3°C / 3°C 360º 2kt >10km patches Fog Vertical Visibility of 0ft. 1028 Temporary: Visibility 1200. patches Fog . Broken Clouds 200ft. LZIB 190400Z 36002KT 9999 2500E BCFG NSC 03/03 Q1028 TEMPO 1200 BCFG BKN002
VFR 3°C / 2°C 70º 3kt >10km patches Fog Vertical Visibility of 0ft. 1028 - LZIB 190330Z 07003KT 9999 2400E BCFG NSC 03/02 Q1028
VFR 3°C / 2°C 90º 3kt >10km patches Fog Vertical Visibility of 0ft. 1028 - LZIB 190300Z 09003KT 9999 1800E BCFG NSC 03/02 Q1028
VFR 3°C / 2°C 80º 2kt >10km - Clouds and Visibility OK 1028 - LZIB 190230Z 08002KT CAVOK 03/02 Q1028
VFR 4°C / 3°C 10º 2kt >10km - Clouds and Visibility OK 1028 - LZIB 190200Z 01002KT CAVOK 04/03 Q1028
VFR 4°C / 3°C variable 0kt >10km - Clouds and Visibility OK 1028 - LZIB 190130Z 00000KT CAVOK 04/03 Q1028

VFR

15°C / 7°C

[Още]
Вятър 180º variable 130º to 210º 7kt
Видимост >10km
Времето -
Облаци Clouds and Visibility OK
Налягане 1026
Промяна No Significant change
Сурови LZIB 191300Z 18007KT 130V210 CAVOK 15/07 Q1026 NOSIG

VFR

15°C / 8°C

[Още]
Вятър variable 2kt
Видимост >10km
Времето -
Облаци Clouds and Visibility OK
Налягане 1026
Промяна No Significant change
Сурови LZIB 191230Z VRB02KT CAVOK 15/08 Q1026 NOSIG

VFR

13°C / 7°C

[Още]
Вятър variable 2kt
Видимост >10km
Времето -
Облаци Clouds and Visibility OK
Налягане 1027
Промяна No Significant change
Сурови LZIB 191200Z VRB02KT CAVOK 13/07 Q1027 NOSIG

VFR

12°C / 7°C

[Още]
Вятър 60º variable 340º to 100º 4kt
Видимост >10km
Времето -
Облаци Clouds and Visibility OK
Налягане 1027
Промяна No Significant change
Сурови LZIB 191130Z 06004KT 340V100 CAVOK 12/07 Q1027 NOSIG

VFR

11°C / 7°C

[Още]
Вятър 40º variable 010º to 070º 7kt
Видимост >10km
Времето -
Облаци Clouds and Visibility OK
Налягане 1028
Промяна No Significant change
Сурови LZIB 191100Z 04007KT 010V070 CAVOK 11/07 Q1028 NOSIG

VFR

10°C / 6°C

[Още]
Вятър 20º 6kt
Видимост >10km
Времето -
Облаци Clouds and Visibility OK
Налягане 1028
Промяна No Significant change
Сурови LZIB 191030Z 02006KT CAVOK 10/06 Q1028 NOSIG

VFR

9°C / 6°C

[Още]
Вятър 50º 5kt
Видимост >10km
Времето -
Облаци Clouds and Visibility OK
Налягане 1028
Промяна No Significant change
Сурови LZIB 191000Z 05005KT CAVOK 09/06 Q1028 NOSIG

VFR

9°C / 6°C

[Още]
Вятър 30º 5kt
Видимост >10km
Времето -
Облаци Clouds and Visibility OK
Налягане 1028
Промяна No Significant change
Сурови LZIB 190930Z 03005KT CAVOK 09/06 Q1028 NOSIG

VFR

8°C / 6°C

[Още]
Вятър 40º 8kt
Видимост >10km
Времето -
Облаци Few Clouds 700ft
Налягане 1028
Промяна No Significant change
Сурови LZIB 190900Z 04008KT 9999 FEW007 08/06 Q1028 NOSIG

MVFR

7°C / 6°C

[Още]
Вятър 30º 7kt
Видимост 7000m
Времето -
Облаци Scattered Clouds 400ft
Налягане 1028
Промяна No Significant change
Сурови LZIB 190830Z 03007KT 7000 SCT004 07/06 Q1028 NOSIG

MVFR

6°C / 5°C

[Още]
Вятър 30º 6kt
Видимост 5000m
Времето Mist
Облаци Vertical Visibility of 0ft.
Налягане 1028
Промяна No Significant change
Сурови LZIB 190800Z 03006KT 5000 BR SCT003 06/05 Q1028 NOSIG

LIFR

6°C / 5°C

[Още]
Вятър 40º 6kt
Видимост 5000m
Времето shallow Fog Mist
Облаци Vertical Visibility of 0ft.
Налягане 1028
Промяна Becoming: Few Clouds 500ft.
Сурови LZIB 190730Z 04006KT 5000 MIFG BR BKN003 06/05 Q1028 BECMG FEW005

IFR

5°C / 5°C

[Още]
Вятър 40º 8kt
Видимост 4200m
Времето shallow Fog Mist
Облаци Vertical Visibility of 0ft.
Налягане 1028
Промяна Temporary: Visibility 0300. Fog .
Сурови LZIB 190700Z 04008KT 4200 MIFG BR SCT002 05/05 Q1028 TEMPO 0300 FG

MVFR

5°C / 4°C

[Още]
Вятър 30º 6kt
Видимост 5000m
Времето shallow Fog Mist
Облаци Vertical Visibility of 0ft.
Налягане 1028
Промяна Temporary: Visibility 1200. patches Fog . Scattered Clouds 200ft.
Сурови LZIB 190630Z 03006KT 5000 MIFG BR FEW009 05/04 Q1028 TEMPO 1200 BCFG SCT002

MVFR

4°C / 3°C

[Още]
Вятър 50º 5kt
Видимост 6000m
Времето shallow Fog
Облаци Vertical Visibility of 0ft.
Налягане 1028
Промяна Temporary: Visibility 2500. Mist . Few Clouds 900ft.
Сурови LZIB 190600Z 05005KT 6000 MIFG FEW009 04/03 Q1028 TEMPO 2500 BR FEW009

MVFR

3°C / 2°C

[Още]
Вятър 30º 6kt
Видимост 7000m
Времето shallow Fog
Облаци Vertical Visibility of 0ft.
Налягане 1028
Промяна Temporary: Visibility 2200. patches Fog . Scattered Clouds 200ft.
Сурови LZIB 190530Z 03006KT 7000 MIFG FEW009 03/02 Q1028 TEMPO 2200 BCFG SCT002

VFR

3°C / 2°C

[Още]
Вятър 30º 6kt
Видимост >10km
Времето shallow Fog
Облаци Vertical Visibility of 0ft.
Налягане 1028
Промяна Temporary: Visibility 2200. patches Fog . Scattered Clouds 200ft.
Сурови LZIB 190500Z 03006KT 9999 MIFG FEW010 03/02 Q1028 TEMPO 2200 BCFG SCT002

VFR

3°C / 2°C

[Още]
Вятър 40º 4kt
Видимост >10km
Времето shallow Fog
Облаци Vertical Visibility of 0ft.
Налягане 1027
Промяна Temporary: Visibility 1200. patches Fog . Broken Clouds 200ft.
Сурови LZIB 190430Z 04004KT 9999 MIFG NSC 03/02 Q1027 TEMPO 1200 BCFG BKN002

VFR

3°C / 3°C

[Още]
Вятър 360º 2kt
Видимост >10km
Времето patches Fog
Облаци Vertical Visibility of 0ft.
Налягане 1028
Промяна Temporary: Visibility 1200. patches Fog . Broken Clouds 200ft.
Сурови LZIB 190400Z 36002KT 9999 2500E BCFG NSC 03/03 Q1028 TEMPO 1200 BCFG BKN002

VFR

3°C / 2°C

[Още]
Вятър 70º 3kt
Видимост >10km
Времето patches Fog
Облаци Vertical Visibility of 0ft.
Налягане 1028
Промяна -
Сурови LZIB 190330Z 07003KT 9999 2400E BCFG NSC 03/02 Q1028

VFR

3°C / 2°C

[Още]
Вятър 90º 3kt
Видимост >10km
Времето patches Fog
Облаци Vertical Visibility of 0ft.
Налягане 1028
Промяна -
Сурови LZIB 190300Z 09003KT 9999 1800E BCFG NSC 03/02 Q1028

VFR

3°C / 2°C

[Още]
Вятър 80º 2kt
Видимост >10km
Времето -
Облаци Clouds and Visibility OK
Налягане 1028
Промяна -
Сурови LZIB 190230Z 08002KT CAVOK 03/02 Q1028

VFR

4°C / 3°C

[Още]
Вятър 10º 2kt
Видимост >10km
Времето -
Облаци Clouds and Visibility OK
Налягане 1028
Промяна -
Сурови LZIB 190200Z 01002KT CAVOK 04/03 Q1028

VFR

4°C / 3°C

[Още]
Вятър variable 0kt
Видимост >10km
Времето -
Облаци Clouds and Visibility OK
Налягане 1028
Промяна -
Сурови LZIB 190130Z 00000KT CAVOK 04/03 Q1028

TAF за Ivanka pri Dunaji (LZIB)

From till


From till Wind 30º 7kt. Visibility 10km or more. Nil Significant Cloud.
Temporarly from till Wind 140º 7kt.
Becoming from till Wind 130º 14kt. Visibility 10km or more. Nil Significant Cloud.

Сурови: TAF LZIB 191100Z 1912/2012 03007KT CAVOK TEMPO 1912/1916 14007KT BECMG 2010/2012 13014KT

Актуални сателитни и дъждовни снимки за Ivanka pri Dunaji, Словакия

Маркерът за локация е поставен върху Ivanka pri Dunaji. [Още]

Сателитното изображение в реално време съчетава видимата светлина през деня с инфрачервеното лъчение през нощта. През нощта изображението не е тъмно, тъй като инфрачервеното лъчение може да открива температурни разлики. За съжаление ниските облаци и мъглата са трудни за разграничаване от температурите на земята и затова могат да бъдат почти невидими през нощта. Сателитните изображения на Meteosat за Европа се актуализират в реално време на всеки 5 минути. Изображенията GOES-16/GOES-17 (Северна и Южна Америка) и Химавари (Азия) се актуализират на всеки 10 минути.

Валежите се изчисляват на база информация от радари и сателити. Нощните прогнози за валежи от сателити са с по-ниска прецизност от дневните прогнози. Оранжевите кръстове маркират локациите, на които са засечени светкавици (над Европа).

Всички права запазени 2021 EUMETSAT / meteoblue. Данни за светкавици, предоставени от nowcast.

Радар и валежи в момента за Ivanka pri Dunaji

Ситен дъжд
Лек
Умерен
Тежък
Много тежък
Аве

Маркерът за локация обозначава Ivanka pri Dunaji. Анимацията показва Радара за валежи за последния час, както и прогноза за 1h. Дъждът или лекият сняг може да са невидими за радара. Интензивността на валежите е обозначена с цветни кодове, вариращи от светлосиньо до оранжево.